sensor_id;sensor_type;location;lat;lon;timestamp;P1;durP1;ratioP1;P2;durP2;ratioP2
73900;SDS011;62235;52.160;7.526;2022-07-23T00:00:43;9.70;;;3.60;;
73900;SDS011;62235;52.160;7.526;2022-07-23T00:03:08;7.60;;;4.25;;
73900;SDS011;62235;52.160;7.526;2022-07-23T00:05:34;5.83;;;3.63;;
73900;SDS011;62235;52.160;7.526;2022-07-23T00:07:59;5.82;;;3.90;;
73900;SDS011;62235;52.160;7.526;2022-07-23T00:10:25;5.87;;;3.83;;
73900;SDS011;62235;52.160;7.526;2022-07-23T00:12:50;7.30;;;3.70;;
73900;SDS011;62235;52.160;7.526;2022-07-23T00:15:15;8.30;;;3.83;;
73900;SDS011;62235;52.160;7.526;2022-07-23T00:17:41;7.53;;;4.00;;
73900;SDS011;62235;52.160;7.526;2022-07-23T00:20:06;8.27;;;4.00;;
73900;SDS011;62235;52.160;7.526;2022-07-23T00:22:32;7.75;;;4.32;;
73900;SDS011;62235;52.160;7.526;2022-07-23T00:24:57;8.73;;;4.03;;
73900;SDS011;62235;52.160;7.526;2022-07-23T00:27:23;5.80;;;4.30;;
73900;SDS011;62235;52.160;7.526;2022-07-23T00:29:48;4.97;;;3.90;;
73900;SDS011;62235;52.160;7.526;2022-07-23T00:32:13;11.57;;;4.22;;
73900;SDS011;62235;52.160;7.526;2022-07-23T00:34:39;6.07;;;4.50;;
73900;SDS011;62235;52.160;7.526;2022-07-23T00:37:04;7.97;;;4.15;;
73900;SDS011;62235;52.160;7.526;2022-07-23T00:39:29;6.47;;;4.00;;
73900;SDS011;62235;52.160;7.526;2022-07-23T00:41:55;7.83;;;4.77;;
73900;SDS011;62235;52.160;7.526;2022-07-23T00:44:24;6.63;;;4.60;;
73900;SDS011;62235;52.160;7.526;2022-07-23T00:46:51;8.77;;;4.68;;
73900;SDS011;62235;52.160;7.526;2022-07-23T00:51:51;7.45;;;4.15;;
73900;SDS011;62235;52.160;7.526;2022-07-23T00:54:17;6.28;;;4.22;;
73900;SDS011;62235;52.160;7.526;2022-07-23T00:56:43;7.45;;;4.93;;
73900;SDS011;62235;52.160;7.526;2022-07-23T00:59:09;8.45;;;5.03;;
73900;SDS011;62235;52.160;7.526;2022-07-23T01:01:35;8.52;;;4.78;;
73900;SDS011;62235;52.160;7.526;2022-07-23T01:04:00;8.32;;;5.10;;
73900;SDS011;62235;52.160;7.526;2022-07-23T01:06:25;8.10;;;5.30;;
73900;SDS011;62235;52.160;7.526;2022-07-23T01:08:51;11.43;;;4.80;;
73900;SDS011;62235;52.160;7.526;2022-07-23T01:11:17;8.25;;;4.63;;
73900;SDS011;62235;52.160;7.526;2022-07-23T01:13:43;6.20;;;4.55;;
73900;SDS011;62235;52.160;7.526;2022-07-23T01:16:09;7.80;;;4.82;;
73900;SDS011;62235;52.160;7.526;2022-07-23T01:18:34;7.40;;;4.82;;
73900;SDS011;62235;52.160;7.526;2022-07-23T01:20:59;8.50;;;4.50;;
73900;SDS011;62235;52.160;7.526;2022-07-23T01:23:25;7.85;;;4.63;;
73900;SDS011;62235;52.160;7.526;2022-07-23T01:25:54;8.00;;;4.90;;
73900;SDS011;62235;52.160;7.526;2022-07-23T01:28:20;6.35;;;4.40;;
73900;SDS011;62235;52.160;7.526;2022-07-23T01:30:46;8.35;;;5.20;;
73900;SDS011;62235;52.160;7.526;2022-07-23T01:33:11;7.28;;;4.30;;
73900;SDS011;62235;52.160;7.526;2022-07-23T01:35:36;9.63;;;4.60;;
73900;SDS011;62235;52.160;7.526;2022-07-23T01:38:02;10.07;;;5.28;;
73900;SDS011;62235;52.160;7.526;2022-07-23T01:40:27;8.23;;;4.50;;
73900;SDS011;62235;52.160;7.526;2022-07-23T01:42:52;9.35;;;5.40;;
73900;SDS011;62235;52.160;7.526;2022-07-23T01:45:18;6.80;;;4.53;;
73900;SDS011;62235;52.160;7.526;2022-07-23T01:47:43;8.25;;;5.22;;
73900;SDS011;62235;52.160;7.526;2022-07-23T01:50:09;9.68;;;4.85;;
73900;SDS011;62235;52.160;7.526;2022-07-23T01:52:34;7.28;;;4.38;;
73900;SDS011;62235;52.160;7.526;2022-07-23T01:54:59;7.00;;;4.63;;
73900;SDS011;62235;52.160;7.526;2022-07-23T01:57:25;8.80;;;4.70;;
73900;SDS011;62235;52.160;7.526;2022-07-23T01:59:50;9.68;;;5.45;;
73900;SDS011;62235;52.160;7.526;2022-07-23T02:02:15;8.33;;;4.60;;
73900;SDS011;62235;52.160;7.526;2022-07-23T02:04:41;7.23;;;4.60;;
73900;SDS011;62235;52.160;7.526;2022-07-23T02:07:06;7.38;;;5.00;;
73900;SDS011;62235;52.160;7.526;2022-07-23T02:09:32;8.43;;;4.68;;
73900;SDS011;62235;52.160;7.526;2022-07-23T02:11:57;8.95;;;5.22;;
73900;SDS011;62235;52.160;7.526;2022-07-23T02:14:23;8.02;;;4.57;;
73900;SDS011;62235;52.160;7.526;2022-07-23T02:16:52;7.00;;;4.68;;
73900;SDS011;62235;52.160;7.526;2022-07-23T02:19:17;6.05;;;4.25;;
73900;SDS011;62235;52.160;7.526;2022-07-23T02:21:42;5.97;;;4.03;;
73900;SDS011;62235;52.160;7.526;2022-07-23T02:24:09;6.72;;;4.10;;
73900;SDS011;62235;52.160;7.526;2022-07-23T02:26:35;7.40;;;4.38;;
73900;SDS011;62235;52.160;7.526;2022-07-23T02:29:03;8.17;;;5.10;;
73900;SDS011;62235;52.160;7.526;2022-07-23T02:31:29;7.22;;;4.50;;
73900;SDS011;62235;52.160;7.526;2022-07-23T02:33:55;6.18;;;4.53;;
73900;SDS011;62235;52.160;7.526;2022-07-23T02:36:20;8.75;;;4.68;;
73900;SDS011;62235;52.160;7.526;2022-07-23T02:38:46;7.32;;;4.80;;
73900;SDS011;62235;52.160;7.526;2022-07-23T02:41:12;9.43;;;5.75;;
73900;SDS011;62235;52.160;7.526;2022-07-23T02:43:37;8.73;;;5.03;;
73900;SDS011;62235;52.160;7.526;2022-07-23T02:46:02;8.07;;;4.93;;
73900;SDS011;62235;52.160;7.526;2022-07-23T02:48:28;6.53;;;4.60;;
73900;SDS011;62235;52.160;7.526;2022-07-23T02:50:53;8.10;;;5.13;;
73900;SDS011;62235;52.160;7.526;2022-07-23T02:53:21;10.55;;;4.90;;
73900;SDS011;62235;52.160;7.526;2022-07-23T02:55:47;7.90;;;5.32;;
73900;SDS011;62235;52.160;7.526;2022-07-23T02:58:12;9.50;;;5.20;;
73900;SDS011;62235;52.160;7.526;2022-07-23T03:00:37;10.03;;;4.90;;
73900;SDS011;62235;52.160;7.526;2022-07-23T03:03:03;9.13;;;5.03;;
73900;SDS011;62235;52.160;7.526;2022-07-23T03:05:28;8.87;;;5.53;;
73900;SDS011;62235;52.160;7.526;2022-07-23T03:07:53;8.77;;;5.70;;
73900;SDS011;62235;52.160;7.526;2022-07-23T03:10:19;9.03;;;5.10;;
73900;SDS011;62235;52.160;7.526;2022-07-23T03:12:44;8.15;;;5.05;;
73900;SDS011;62235;52.160;7.526;2022-07-23T03:15:09;6.80;;;4.60;;
73900;SDS011;62235;52.160;7.526;2022-07-23T03:17:35;8.60;;;5.50;;
73900;SDS011;62235;52.160;7.526;2022-07-23T03:20:00;7.10;;;4.83;;
73900;SDS011;62235;52.160;7.526;2022-07-23T03:22:25;11.37;;;5.87;;
73900;SDS011;62235;52.160;7.526;2022-07-23T03:24:51;7.67;;;4.90;;
73900;SDS011;62235;52.160;7.526;2022-07-23T03:27:19;10.52;;;5.57;;
73900;SDS011;62235;52.160;7.526;2022-07-23T03:29:45;8.77;;;5.38;;
73900;SDS011;62235;52.160;7.526;2022-07-23T03:32:10;8.13;;;5.37;;
73900;SDS011;62235;52.160;7.526;2022-07-23T03:34:36;7.30;;;4.83;;
73900;SDS011;62235;52.160;7.526;2022-07-23T03:37:02;11.18;;;5.47;;
73900;SDS011;62235;52.160;7.526;2022-07-23T03:39:27;9.03;;;5.40;;
73900;SDS011;62235;52.160;7.526;2022-07-23T03:41:53;8.60;;;5.70;;
73900;SDS011;62235;52.160;7.526;2022-07-23T03:44:18;7.65;;;5.15;;
73900;SDS011;62235;52.160;7.526;2022-07-23T03:46:43;9.50;;;5.85;;
73900;SDS011;62235;52.160;7.526;2022-07-23T03:49:09;7.43;;;4.80;;
73900;SDS011;62235;52.160;7.526;2022-07-23T03:51:34;12.10;;;5.53;;
73900;SDS011;62235;52.160;7.526;2022-07-23T03:53:59;9.47;;;5.73;;
73900;SDS011;62235;52.160;7.526;2022-07-23T03:56:24;8.83;;;6.10;;
73900;SDS011;62235;52.160;7.526;2022-07-23T03:58:51;8.57;;;5.38;;
73900;SDS011;62235;52.160;7.526;2022-07-23T04:01:16;9.82;;;5.22;;
73900;SDS011;62235;52.160;7.526;2022-07-23T04:03:41;8.37;;;5.23;;
73900;SDS011;62235;52.160;7.526;2022-07-23T04:06:06;8.13;;;5.20;;
73900;SDS011;62235;52.160;7.526;2022-07-23T04:08:32;7.82;;;5.50;;
73900;SDS011;62235;52.160;7.526;2022-07-23T04:10:57;10.45;;;5.25;;
73900;SDS011;62235;52.160;7.526;2022-07-23T04:13:23;9.32;;;5.15;;
73900;SDS011;62235;52.160;7.526;2022-07-23T04:15:48;7.47;;;5.43;;
73900;SDS011;62235;52.160;7.526;2022-07-23T04:18:14;9.35;;;5.38;;
73900;SDS011;62235;52.160;7.526;2022-07-23T04:20:42;10.45;;;5.60;;
73900;SDS011;62235;52.160;7.526;2022-07-23T04:23:07;7.40;;;5.38;;
73900;SDS011;62235;52.160;7.526;2022-07-23T04:25:34;10.57;;;5.90;;
73900;SDS011;62235;52.160;7.526;2022-07-23T04:27:59;13.40;;;6.30;;
73900;SDS011;62235;52.160;7.526;2022-07-23T04:30:25;7.57;;;5.23;;
73900;SDS011;62235;52.160;7.526;2022-07-23T04:32:50;9.25;;;5.90;;
73900;SDS011;62235;52.160;7.526;2022-07-23T04:35:15;8.17;;;5.23;;
73900;SDS011;62235;52.160;7.526;2022-07-23T04:37:41;10.63;;;5.30;;
73900;SDS011;62235;52.160;7.526;2022-07-23T04:40:06;9.83;;;5.30;;
73900;SDS011;62235;52.160;7.526;2022-07-23T04:42:32;11.30;;;5.90;;
73900;SDS011;62235;52.160;7.526;2022-07-23T04:44:57;8.15;;;5.57;;
73900;SDS011;62235;52.160;7.526;2022-07-23T04:47:22;9.17;;;5.57;;
73900;SDS011;62235;52.160;7.526;2022-07-23T04:49:48;7.70;;;5.70;;
73900;SDS011;62235;52.160;7.526;2022-07-23T04:52:13;9.52;;;5.78;;
73900;SDS011;62235;52.160;7.526;2022-07-23T04:54:40;8.80;;;5.70;;
73900;SDS011;62235;52.160;7.526;2022-07-23T04:57:07;11.27;;;6.15;;
73900;SDS011;62235;52.160;7.526;2022-07-23T04:59:32;6.50;;;5.03;;
73900;SDS011;62235;52.160;7.526;2022-07-23T05:01:57;9.97;;;5.33;;
73900;SDS011;62235;52.160;7.526;2022-07-23T05:04:23;9.13;;;5.73;;
73900;SDS011;62235;52.160;7.526;2022-07-23T05:06:48;9.90;;;6.23;;
73900;SDS011;62235;52.160;7.526;2022-07-23T05:09:13;9.00;;;5.72;;
73900;SDS011;62235;52.160;7.526;2022-07-23T05:11:39;8.15;;;4.65;;
73900;SDS011;62235;52.160;7.526;2022-07-23T05:14:04;11.30;;;5.97;;
73900;SDS011;62235;52.160;7.526;2022-07-23T05:16:29;7.95;;;5.22;;
73900;SDS011;62235;52.160;7.526;2022-07-23T05:18:55;9.50;;;6.10;;
73900;SDS011;62235;52.160;7.526;2022-07-23T05:21:20;8.77;;;5.13;;
73900;SDS011;62235;52.160;7.526;2022-07-23T05:23:45;10.27;;;5.47;;
73900;SDS011;62235;52.160;7.526;2022-07-23T05:26:11;9.47;;;5.03;;
73900;SDS011;62235;52.160;7.526;2022-07-23T05:28:36;10.17;;;5.53;;
73900;SDS011;62235;52.160;7.526;2022-07-23T05:31:01;11.88;;;5.80;;
73900;SDS011;62235;52.160;7.526;2022-07-23T05:33:28;8.20;;;5.70;;
73900;SDS011;62235;52.160;7.526;2022-07-23T05:35:59;9.80;;;5.72;;
73900;SDS011;62235;52.160;7.526;2022-07-23T05:38:25;9.40;;;5.82;;
73900;SDS011;62235;52.160;7.526;2022-07-23T05:40:50;8.73;;;5.32;;
73900;SDS011;62235;52.160;7.526;2022-07-23T05:43:16;11.95;;;5.63;;
73900;SDS011;62235;52.160;7.526;2022-07-23T05:45:41;11.02;;;5.75;;
73900;SDS011;62235;52.160;7.526;2022-07-23T05:48:06;8.75;;;6.30;;
73900;SDS011;62235;52.160;7.526;2022-07-23T05:50:32;12.27;;;5.60;;
73900;SDS011;62235;52.160;7.526;2022-07-23T05:52:57;10.10;;;5.75;;
73900;SDS011;62235;52.160;7.526;2022-07-23T05:55:22;7.70;;;4.83;;
73900;SDS011;62235;52.160;7.526;2022-07-23T05:57:48;9.77;;;5.40;;
73900;SDS011;62235;52.160;7.526;2022-07-23T06:00:13;8.27;;;5.30;;
73900;SDS011;62235;52.160;7.526;2022-07-23T06:02:39;9.60;;;5.13;;
73900;SDS011;62235;52.160;7.526;2022-07-23T06:05:05;9.48;;;5.00;;
73900;SDS011;62235;52.160;7.526;2022-07-23T06:07:32;9.82;;;4.93;;
73900;SDS011;62235;52.160;7.526;2022-07-23T06:09:58;8.98;;;4.95;;
73900;SDS011;62235;52.160;7.526;2022-07-23T06:12:23;12.03;;;5.27;;
73900;SDS011;62235;52.160;7.526;2022-07-23T06:14:49;6.50;;;4.70;;
73900;SDS011;62235;52.160;7.526;2022-07-23T06:17:16;10.38;;;4.25;;
73900;SDS011;62235;52.160;7.526;2022-07-23T06:19:42;8.02;;;4.43;;
73900;SDS011;62235;52.160;7.526;2022-07-23T06:22:07;9.18;;;4.72;;
73900;SDS011;62235;52.160;7.526;2022-07-23T06:24:33;7.43;;;4.47;;
73900;SDS011;62235;52.160;7.526;2022-07-23T06:26:58;8.98;;;4.20;;
73900;SDS011;62235;52.160;7.526;2022-07-23T06:29:23;7.05;;;4.03;;
73900;SDS011;62235;52.160;7.526;2022-07-23T06:31:49;6.68;;;4.28;;
73900;SDS011;62235;52.160;7.526;2022-07-23T06:34:14;8.33;;;4.43;;
73900;SDS011;62235;52.160;7.526;2022-07-23T06:36:39;7.95;;;4.20;;
73900;SDS011;62235;52.160;7.526;2022-07-23T06:39:05;8.15;;;4.13;;
73900;SDS011;62235;52.160;7.526;2022-07-23T06:41:30;7.80;;;4.20;;
73900;SDS011;62235;52.160;7.526;2022-07-23T06:43:55;6.30;;;4.00;;
73900;SDS011;62235;52.160;7.526;2022-07-23T06:46:21;5.87;;;3.27;;
73900;SDS011;62235;52.160;7.526;2022-07-23T06:48:46;6.95;;;3.40;;
73900;SDS011;62235;52.160;7.526;2022-07-23T06:51:11;10.43;;;4.23;;
73900;SDS011;62235;52.160;7.526;2022-07-23T06:53:37;6.13;;;2.70;;
73900;SDS011;62235;52.160;7.526;2022-07-23T06:56:02;6.73;;;2.60;;
73900;SDS011;62235;52.160;7.526;2022-07-23T06:58:27;4.95;;;2.95;;
73900;SDS011;62235;52.160;7.526;2022-07-23T07:00:53;5.50;;;2.60;;
73900;SDS011;62235;52.160;7.526;2022-07-23T07:03:18;5.22;;;3.30;;
73900;SDS011;62235;52.160;7.526;2022-07-23T07:05:44;5.10;;;2.97;;
73900;SDS011;62235;52.160;7.526;2022-07-23T07:08:09;7.30;;;3.13;;
73900;SDS011;62235;52.160;7.526;2022-07-23T07:10:35;7.18;;;3.13;;
73900;SDS011;62235;52.160;7.526;2022-07-23T07:13:00;7.60;;;3.75;;
73900;SDS011;62235;52.160;7.526;2022-07-23T07:15:25;5.27;;;3.23;;
73900;SDS011;62235;52.160;7.526;2022-07-23T07:17:51;5.30;;;2.90;;
73900;SDS011;62235;52.160;7.526;2022-07-23T07:20:16;5.25;;;3.03;;
73900;SDS011;62235;52.160;7.526;2022-07-23T07:22:42;6.53;;;3.80;;
73900;SDS011;62235;52.160;7.526;2022-07-23T07:25:07;7.28;;;3.20;;
73900;SDS011;62235;52.160;7.526;2022-07-23T07:27:32;8.20;;;3.33;;
73900;SDS011;62235;52.160;7.526;2022-07-23T07:29:58;5.35;;;2.63;;
73900;SDS011;62235;52.160;7.526;2022-07-23T07:32:23;5.70;;;2.80;;
73900;SDS011;62235;52.160;7.526;2022-07-23T07:34:48;2.47;;;1.55;;
73900;SDS011;62235;52.160;7.526;2022-07-23T07:37:14;6.65;;;2.25;;
73900;SDS011;62235;52.160;7.526;2022-07-23T07:39:39;4.10;;;2.17;;
73900;SDS011;62235;52.160;7.526;2022-07-23T07:42:05;3.03;;;1.77;;
73900;SDS011;62235;52.160;7.526;2022-07-23T07:44:30;3.42;;;1.75;;
73900;SDS011;62235;52.160;7.526;2022-07-23T07:46:55;4.18;;;1.58;;
73900;SDS011;62235;52.160;7.526;2022-07-23T07:49:21;2.33;;;1.65;;
73900;SDS011;62235;52.160;7.526;2022-07-23T07:51:46;3.05;;;1.83;;
73900;SDS011;62235;52.160;7.526;2022-07-23T07:54:12;3.43;;;1.67;;
73900;SDS011;62235;52.160;7.526;2022-07-23T07:56:38;3.22;;;1.83;;
73900;SDS011;62235;52.160;7.526;2022-07-23T07:59:03;3.33;;;1.70;;
73900;SDS011;62235;52.160;7.526;2022-07-23T08:01:28;5.35;;;2.00;;
73900;SDS011;62235;52.160;7.526;2022-07-23T08:03:54;4.10;;;1.73;;
73900;SDS011;62235;52.160;7.526;2022-07-23T08:06:19;4.97;;;1.52;;
73900;SDS011;62235;52.160;7.526;2022-07-23T08:08:44;1.50;;;1.00;;
73900;SDS011;62235;52.160;7.526;2022-07-23T08:11:10;4.50;;;1.77;;
73900;SDS011;62235;52.160;7.526;2022-07-23T08:13:35;3.20;;;1.60;;
73900;SDS011;62235;52.160;7.526;2022-07-23T08:16:00;2.40;;;1.30;;
73900;SDS011;62235;52.160;7.526;2022-07-23T08:18:26;3.03;;;1.25;;
73900;SDS011;62235;52.160;7.526;2022-07-23T08:20:51;4.53;;;1.27;;
73900;SDS011;62235;52.160;7.526;2022-07-23T08:23:16;1.53;;;1.10;;
73900;SDS011;62235;52.160;7.526;2022-07-23T08:25:44;2.65;;;0.85;;
73900;SDS011;62235;52.160;7.526;2022-07-23T08:28:10;1.27;;;0.70;;
73900;SDS011;62235;52.160;7.526;2022-07-23T08:30:37;2.60;;;1.10;;
73900;SDS011;62235;52.160;7.526;2022-07-23T08:33:04;1.45;;;1.00;;
73900;SDS011;62235;52.160;7.526;2022-07-23T08:35:40;3.10;;;1.10;;
73900;SDS011;62235;52.160;7.526;2022-07-23T08:38:07;2.30;;;1.00;;
73900;SDS011;62235;52.160;7.526;2022-07-23T08:40:37;3.70;;;1.13;;
73900;SDS011;62235;52.160;7.526;2022-07-23T08:43:08;1.23;;;0.80;;
73900;SDS011;62235;52.160;7.526;2022-07-23T08:45:35;2.95;;;1.02;;
73900;SDS011;62235;52.160;7.526;2022-07-23T08:48:02;1.67;;;0.93;;
73900;SDS011;62235;52.160;7.526;2022-07-23T08:50:28;1.80;;;0.95;;
73900;SDS011;62235;52.160;7.526;2022-07-23T08:52:54;2.30;;;1.10;;
73900;SDS011;62235;52.160;7.526;2022-07-23T08:55:21;3.03;;;1.08;;
73900;SDS011;62235;52.160;7.526;2022-07-23T08:57:48;1.50;;;0.90;;
73900;SDS011;62235;52.160;7.526;2022-07-23T09:00:15;2.60;;;1.05;;
73900;SDS011;62235;52.160;7.526;2022-07-23T09:02:41;3.00;;;1.10;;
73900;SDS011;62235;52.160;7.526;2022-07-23T09:05:08;2.58;;;0.60;;
73900;SDS011;62235;52.160;7.526;2022-07-23T09:07:35;2.92;;;1.27;;
73900;SDS011;62235;52.160;7.526;2022-07-23T09:10:07;1.92;;;1.02;;
73900;SDS011;62235;52.160;7.526;2022-07-23T09:12:34;1.30;;;0.80;;
73900;SDS011;62235;52.160;7.526;2022-07-23T09:15:03;2.25;;;0.95;;
73900;SDS011;62235;52.160;7.526;2022-07-23T09:17:37;3.63;;;1.67;;
73900;SDS011;62235;52.160;7.526;2022-07-23T09:20:14;1.90;;;0.95;;
73900;SDS011;62235;52.160;7.526;2022-07-23T09:22:44;1.98;;;0.93;;
73900;SDS011;62235;52.160;7.526;2022-07-23T09:25:12;1.50;;;0.90;;
73900;SDS011;62235;52.160;7.526;2022-07-23T09:27:58;1.58;;;1.05;;
73900;SDS011;62235;52.160;7.526;2022-07-23T09:30:28;1.30;;;1.10;;
73900;SDS011;62235;52.160;7.526;2022-07-23T09:33:05;1.23;;;0.90;;
73900;SDS011;62235;52.160;7.526;2022-07-23T09:35:43;1.92;;;0.90;;
73900;SDS011;62235;52.160;7.526;2022-07-23T09:38:19;1.85;;;0.82;;
73900;SDS011;62235;52.160;7.526;2022-07-23T09:40:45;2.17;;;0.93;;
73900;SDS011;62235;52.160;7.526;2022-07-23T09:43:12;2.25;;;1.30;;
73900;SDS011;62235;52.160;7.526;2022-07-23T09:45:38;5.45;;;1.25;;
73900;SDS011;62235;52.160;7.526;2022-07-23T09:48:11;0.95;;;0.70;;
73900;SDS011;62235;52.160;7.526;2022-07-23T09:50:41;2.45;;;1.00;;
73900;SDS011;62235;52.160;7.526;2022-07-23T09:53:06;3.78;;;1.02;;
73900;SDS011;62235;52.160;7.526;2022-07-23T09:55:33;3.60;;;1.30;;
73900;SDS011;62235;52.160;7.526;2022-07-23T09:58:05;2.17;;;0.98;;
73900;SDS011;62235;52.160;7.526;2022-07-23T10:00:32;4.07;;;1.00;;
73900;SDS011;62235;52.160;7.526;2022-07-23T10:02:57;3.28;;;0.80;;
73900;SDS011;62235;52.160;7.526;2022-07-23T10:05:24;1.50;;;0.90;;
73900;SDS011;62235;52.160;7.526;2022-07-23T10:07:49;1.95;;;1.00;;
73900;SDS011;62235;52.160;7.526;2022-07-23T10:10:15;2.38;;;0.90;;
73900;SDS011;62235;52.160;7.526;2022-07-23T10:12:43;1.98;;;1.00;;
73900;SDS011;62235;52.160;7.526;2022-07-23T10:15:41;2.33;;;0.90;;
73900;SDS011;62235;52.160;7.526;2022-07-23T10:18:07;2.30;;;1.05;;
73900;SDS011;62235;52.160;7.526;2022-07-23T10:20:35;3.80;;;0.88;;
73900;SDS011;62235;52.160;7.526;2022-07-23T10:26:09;2.80;;;1.20;;
73900;SDS011;62235;52.160;7.526;2022-07-23T10:28:42;1.88;;;0.60;;
73900;SDS011;62235;52.160;7.526;2022-07-23T10:32:00;1.92;;;0.90;;
73900;SDS011;62235;52.160;7.526;2022-07-23T10:34:44;2.97;;;0.90;;
73900;SDS011;62235;52.160;7.526;2022-07-23T10:37:18;2.60;;;1.05;;
73900;SDS011;62235;52.160;7.526;2022-07-23T10:39:56;3.33;;;0.90;;
73900;SDS011;62235;52.160;7.526;2022-07-23T10:42:34;1.88;;;0.82;;
73900;SDS011;62235;52.160;7.526;2022-07-23T10:45:00;1.75;;;0.77;;
73900;SDS011;62235;52.160;7.526;2022-07-23T10:47:27;0.98;;;0.90;;
73900;SDS011;62235;52.160;7.526;2022-07-23T10:50:22;5.53;;;0.80;;
73900;SDS011;62235;52.160;7.526;2022-07-23T10:57:59;1.40;;;0.60;;
73900;SDS011;62235;52.160;7.526;2022-07-23T11:00:26;1.95;;;1.10;;
73900;SDS011;62235;52.160;7.526;2022-07-23T11:02:56;1.85;;;0.98;;
73900;SDS011;62235;52.160;7.526;2022-07-23T11:05:42;2.53;;;1.00;;
73900;SDS011;62235;52.160;7.526;2022-07-23T11:08:11;1.20;;;0.70;;
73900;SDS011;62235;52.160;7.526;2022-07-23T11:34:43;1.33;;;0.43;;
73900;SDS011;62235;52.160;7.526;2022-07-23T11:37:26;2.45;;;0.80;;
73900;SDS011;62235;52.160;7.526;2022-07-23T11:40:08;3.60;;;0.90;;
73900;SDS011;62235;52.160;7.526;2022-07-23T11:42:36;1.48;;;0.90;;
73900;SDS011;62235;52.160;7.526;2022-07-23T11:45:03;2.05;;;0.90;;
73900;SDS011;62235;52.160;7.526;2022-07-23T11:47:30;2.50;;;0.95;;
73900;SDS011;62235;52.160;7.526;2022-07-23T11:49:56;1.25;;;0.80;;
73900;SDS011;62235;52.160;7.526;2022-07-23T11:52:23;0.95;;;0.60;;
73900;SDS011;62235;52.160;7.526;2022-07-23T11:57:40;8.88;;;1.05;;
73900;SDS011;62235;52.160;7.526;2022-07-23T12:00:10;0.90;;;0.80;;
73900;SDS011;62235;52.160;7.526;2022-07-23T12:02:44;4.18;;;0.82;;
73900;SDS011;62235;52.160;7.526;2022-07-23T12:05:11;1.65;;;0.90;;
73900;SDS011;62235;52.160;7.526;2022-07-23T12:07:39;2.08;;;0.93;;
73900;SDS011;62235;52.160;7.526;2022-07-23T12:10:13;1.90;;;0.90;;
73900;SDS011;62235;52.160;7.526;2022-07-23T12:12:47;1.23;;;1.10;;
73900;SDS011;62235;52.160;7.526;2022-07-23T12:15:17;2.65;;;1.08;;
73900;SDS011;62235;52.160;7.526;2022-07-23T12:17:44;3.95;;;1.10;;
73900;SDS011;62235;52.160;7.526;2022-07-23T12:20:12;1.75;;;1.20;;
73900;SDS011;62235;52.160;7.526;2022-07-23T12:22:43;2.88;;;0.70;;
73900;SDS011;62235;52.160;7.526;2022-07-23T12:25:12;1.83;;;1.33;;
73900;SDS011;62235;52.160;7.526;2022-07-23T12:27:39;5.18;;;1.30;;
73900;SDS011;62235;52.160;7.526;2022-07-23T12:30:24;1.13;;;0.60;;
73900;SDS011;62235;52.160;7.526;2022-07-23T12:32:56;1.88;;;0.90;;
73900;SDS011;62235;52.160;7.526;2022-07-23T12:35:23;1.80;;;1.00;;
73900;SDS011;62235;52.160;7.526;2022-07-23T12:37:59;1.83;;;0.80;;
73900;SDS011;62235;52.160;7.526;2022-07-23T12:40:27;1.52;;;0.80;;
73900;SDS011;62235;52.160;7.526;2022-07-23T12:42:58;0.90;;;0.60;;
73900;SDS011;62235;52.160;7.526;2022-07-23T12:45:40;1.70;;;1.10;;
73900;SDS011;62235;52.160;7.526;2022-07-23T12:48:07;1.13;;;0.90;;
73900;SDS011;62235;52.160;7.526;2022-07-23T12:55:41;1.17;;;0.90;;
73900;SDS011;62235;52.160;7.526;2022-07-23T12:58:08;3.30;;;0.80;;
73900;SDS011;62235;52.160;7.526;2022-07-23T13:03:29;1.38;;;0.90;;
73900;SDS011;62235;52.160;7.526;2022-07-23T13:06:03;3.95;;;1.20;;
73900;SDS011;62235;52.160;7.526;2022-07-23T13:08:30;1.60;;;0.70;;
73900;SDS011;62235;52.160;7.526;2022-07-23T13:10:56;1.85;;;1.00;;
73900;SDS011;62235;52.160;7.526;2022-07-23T13:13:22;2.60;;;1.27;;
73900;SDS011;62235;52.160;7.526;2022-07-23T13:15:52;1.70;;;1.00;;
73900;SDS011;62235;52.160;7.526;2022-07-23T13:18:19;2.05;;;1.20;;
73900;SDS011;62235;52.160;7.526;2022-07-23T13:20:45;2.05;;;0.98;;
73900;SDS011;62235;52.160;7.526;2022-07-23T13:23:12;4.05;;;2.25;;
73900;SDS011;62235;52.160;7.526;2022-07-23T13:25:38;3.53;;;1.00;;
73900;SDS011;62235;52.160;7.526;2022-07-23T13:28:03;1.90;;;1.13;;
73900;SDS011;62235;52.160;7.526;2022-07-23T13:30:29;2.08;;;1.10;;
73900;SDS011;62235;52.160;7.526;2022-07-23T13:32:54;1.42;;;1.05;;
73900;SDS011;62235;52.160;7.526;2022-07-23T13:35:20;1.55;;;1.10;;
73900;SDS011;62235;52.160;7.526;2022-07-23T13:37:45;3.72;;;1.20;;
73900;SDS011;62235;52.160;7.526;2022-07-23T13:40:11;2.17;;;1.23;;
73900;SDS011;62235;52.160;7.526;2022-07-23T13:42:37;2.58;;;1.35;;
73900;SDS011;62235;52.160;7.526;2022-07-23T13:45:03;2.22;;;1.20;;
73900;SDS011;62235;52.160;7.526;2022-07-23T13:47:30;2.20;;;1.10;;
73900;SDS011;62235;52.160;7.526;2022-07-23T13:49:55;1.70;;;1.13;;
73900;SDS011;62235;52.160;7.526;2022-07-23T13:52:21;3.00;;;1.40;;
73900;SDS011;62235;52.160;7.526;2022-07-23T13:54:46;2.97;;;1.10;;
73900;SDS011;62235;52.160;7.526;2022-07-23T13:57:11;2.67;;;1.20;;
73900;SDS011;62235;52.160;7.526;2022-07-23T13:59:36;1.90;;;1.40;;
73900;SDS011;62235;52.160;7.526;2022-07-23T14:02:03;2.17;;;1.30;;
73900;SDS011;62235;52.160;7.526;2022-07-23T14:04:28;2.15;;;1.30;;
73900;SDS011;62235;52.160;7.526;2022-07-23T14:06:54;3.35;;;1.40;;
73900;SDS011;62235;52.160;7.526;2022-07-23T14:09:19;1.98;;;1.40;;
73900;SDS011;62235;52.160;7.526;2022-07-23T14:11:44;2.23;;;1.23;;
73900;SDS011;62235;52.160;7.526;2022-07-23T14:14:10;4.28;;;1.40;;
73900;SDS011;62235;52.160;7.526;2022-07-23T14:16:35;1.77;;;1.30;;
73900;SDS011;62235;52.160;7.526;2022-07-23T14:19:00;2.03;;;1.25;;
73900;SDS011;62235;52.160;7.526;2022-07-23T14:21:26;2.00;;;1.25;;
73900;SDS011;62235;52.160;7.526;2022-07-23T14:23:51;3.13;;;1.30;;
73900;SDS011;62235;52.160;7.526;2022-07-23T14:26:16;2.33;;;1.10;;
73900;SDS011;62235;52.160;7.526;2022-07-23T14:28:41;1.77;;;1.40;;
73900;SDS011;62235;52.160;7.526;2022-07-23T14:31:07;1.98;;;1.20;;
73900;SDS011;62235;52.160;7.526;2022-07-23T14:33:32;2.47;;;1.30;;
73900;SDS011;62235;52.160;7.526;2022-07-23T14:35:57;5.43;;;1.85;;
73900;SDS011;62235;52.160;7.526;2022-07-23T14:38:24;2.20;;;1.17;;
73900;SDS011;62235;52.160;7.526;2022-07-23T14:40:49;2.78;;;1.40;;
73900;SDS011;62235;52.160;7.526;2022-07-23T14:43:14;3.57;;;1.47;;
73900;SDS011;62235;52.160;7.526;2022-07-23T14:45:40;4.10;;;1.67;;
73900;SDS011;62235;52.160;7.526;2022-07-23T14:48:05;3.05;;;0.77;;
73900;SDS011;62235;52.160;7.526;2022-07-23T14:50:31;2.25;;;1.30;;
73900;SDS011;62235;52.160;7.526;2022-07-23T14:52:56;1.83;;;1.13;;
73900;SDS011;62235;52.160;7.526;2022-07-23T14:55:21;1.65;;;1.30;;
73900;SDS011;62235;52.160;7.526;2022-07-23T14:57:47;1.67;;;1.20;;
73900;SDS011;62235;52.160;7.526;2022-07-23T15:00:12;1.73;;;1.27;;
73900;SDS011;62235;52.160;7.526;2022-07-23T15:02:38;2.95;;;1.30;;
73900;SDS011;62235;52.160;7.526;2022-07-23T15:05:03;1.92;;;1.10;;
73900;SDS011;62235;52.160;7.526;2022-07-23T15:07:29;1.90;;;1.25;;
73900;SDS011;62235;52.160;7.526;2022-07-23T15:09:55;1.50;;;1.10;;
73900;SDS011;62235;52.160;7.526;2022-07-23T15:12:21;2.03;;;1.25;;
73900;SDS011;62235;52.160;7.526;2022-07-23T15:14:46;1.98;;;0.93;;
73900;SDS011;62235;52.160;7.526;2022-07-23T15:17:12;1.43;;;1.00;;
73900;SDS011;62235;52.160;7.526;2022-07-23T15:19:37;2.45;;;1.10;;
73900;SDS011;62235;52.160;7.526;2022-07-23T15:22:02;2.72;;;1.40;;
73900;SDS011;62235;52.160;7.526;2022-07-23T15:24:29;3.20;;;1.10;;
73900;SDS011;62235;52.160;7.526;2022-07-23T15:26:54;4.40;;;1.25;;
73900;SDS011;62235;52.160;7.526;2022-07-23T15:29:20;3.20;;;1.17;;